createdAt,value
2023-05-18T00:04:37.539Z,35.85
2023-05-18T00:05:43.238Z,34.22
2023-05-18T00:06:46.790Z,34.38
2023-05-18T00:08:18.829Z,28.75
2023-05-18T00:09:24.143Z,37.17
2023-05-18T00:10:45.103Z,35.55
2023-05-18T00:11:49.765Z,37.38
2023-05-18T00:16:44.858Z,37.35
2023-05-18T00:21:34.008Z,37.92
2023-05-18T01:42:51.299Z,38.25
2023-05-18T01:44:21.049Z,34.40
2023-05-18T01:45:30.565Z,39.05
2023-05-18T01:47:05.766Z,42.50
2023-05-18T01:50:59.956Z,40.55
2023-05-18T01:52:12.080Z,32.15
2023-05-18T01:56:44.066Z,39.47
2023-05-18T01:57:53.003Z,35.65
2023-05-18T02:35:47.276Z,38.63
2023-05-18T02:36:49.532Z,35.55
2023-05-18T02:37:55.047Z,41.92
2023-05-18T02:38:57.307Z,32.65
2023-05-18T02:39:59.297Z,30.65
2023-05-18T02:41:01.166Z,46.33
2023-05-18T02:42:03.077Z,41.45
2023-05-18T02:43:05.087Z,35.72
2023-05-18T02:44:09.376Z,30.80
2023-05-18T02:45:11.542Z,32.30
2023-05-18T02:46:14.921Z,30.85
2023-05-18T02:47:17.119Z,32.70
2023-05-18T02:48:19.042Z,29.48
2023-05-18T02:49:21.105Z,30.08
2023-05-18T02:50:22.974Z,32.97
2023-05-18T02:51:24.916Z,32.45
2023-05-18T02:52:27.818Z,29.15
2023-05-18T02:53:31.515Z,30.98
2023-05-18T02:54:38.700Z,31.75
2023-05-18T02:55:46.828Z,33.15
2023-05-18T02:56:56.880Z,34.42
2023-05-18T02:58:08.336Z,30.85
2023-05-18T02:59:33.958Z,27.17
2023-05-18T03:00:36.029Z,33.47
2023-05-18T03:01:40.156Z,35.92
2023-05-18T03:02:44.459Z,30.90
2023-05-18T03:03:47.382Z,32.35
2023-05-18T03:04:55.464Z,30.90
2023-05-18T03:05:57.481Z,30.90
2023-05-18T03:07:02.709Z,28.50
2023-05-18T03:08:06.289Z,30.50
2023-05-18T03:09:08.503Z,26.27
2023-05-18T03:10:15.900Z,35.13
2023-05-18T03:11:17.779Z,30.40
2023-05-18T03:12:19.811Z,26.88
2023-05-18T03:13:22.260Z,28.15
2023-05-18T03:14:24.213Z,28.27
2023-05-18T03:15:27.129Z,28.55
2023-05-18T03:16:29.577Z,27.13
2023-05-18T03:17:33.836Z,29.80
2023-05-18T03:18:36.116Z,26.92
2023-05-18T03:19:38.334Z,26.73
2023-05-18T03:20:40.977Z,29.52
2023-05-18T03:21:43.976Z,29.33
2023-05-18T03:22:45.968Z,32.08
2023-05-18T03:23:48.023Z,34.38
2023-05-18T03:24:51.410Z,26.42
2023-05-18T03:25:55.409Z,26.10
2023-05-18T03:27:01.044Z,29.70
2023-05-18T03:28:06.676Z,31.35
2023-05-18T03:29:10.235Z,29.08
2023-05-18T03:30:12.597Z,24.65
2023-05-18T03:31:14.746Z,31.90
2023-05-18T03:32:16.718Z,26.30
2023-05-18T03:33:18.762Z,26.83
2023-05-18T03:34:21.921Z,31.15
2023-05-18T03:35:23.834Z,28.42
2023-05-18T03:36:28.305Z,28.77
2023-05-18T03:37:30.830Z,30.05
2023-05-18T03:38:33.996Z,29.77
2023-05-18T03:39:41.691Z,29.13
2023-05-18T03:40:43.848Z,29.52
2023-05-18T03:41:46.128Z,28.70
2023-05-18T03:42:48.131Z,30.08
2023-05-18T03:43:50.971Z,28.30
2023-05-18T03:44:53.048Z,26.38
2023-05-18T03:45:55.244Z,30.70
2023-05-18T03:46:57.195Z,24.85
2023-05-18T03:47:59.241Z,32.00
2023-05-18T03:49:02.271Z,28.98
2023-05-18T03:50:10.729Z,24.45
2023-05-18T03:51:13.195Z,22.60
2023-05-18T03:52:17.048Z,27.98
2023-05-18T03:53:23.266Z,33.33
2023-05-18T03:54:25.689Z,25.85
2023-05-18T03:55:27.964Z,25.35
2023-05-18T03:56:31.333Z,24.77
2023-05-18T03:57:33.709Z,30.13
2023-05-18T03:58:37.060Z,31.50
2023-05-18T03:59:39.124Z,25.77
2023-05-18T04:00:45.194Z,26.65
2023-05-18T04:01:47.707Z,25.48
2023-05-18T04:02:52.078Z,30.40
2023-05-18T04:03:59.262Z,26.63
2023-05-18T04:05:02.183Z,29.45
2023-05-18T04:06:06.521Z,24.77
2023-05-18T04:07:08.974Z,28.17
2023-05-18T04:08:14.518Z,24.05
2023-05-18T04:09:19.147Z,22.88
2023-05-18T04:10:22.090Z,24.25
2023-05-18T04:11:23.946Z,26.35
2023-05-18T04:12:25.981Z,25.05
2023-05-18T04:13:47.035Z,25.00
2023-05-18T04:14:54.232Z,25.27
2023-05-18T04:15:58.423Z,24.95
2023-05-18T04:17:05.232Z,24.83
2023-05-18T04:18:08.340Z,22.92
2023-05-18T04:19:10.612Z,29.67
2023-05-18T04:20:14.497Z,29.52
2023-05-18T04:21:17.487Z,22.15
2023-05-18T04:22:22.044Z,29.77
2023-05-18T04:23:24.077Z,22.95
2023-05-18T04:24:27.010Z,21.80
2023-05-18T04:25:29.176Z,24.33
2023-05-18T04:26:36.736Z,22.77
2023-05-18T04:27:40.052Z,26.88
2023-05-18T04:28:43.241Z,23.90
2023-05-18T04:29:45.191Z,29.08
2023-05-18T04:30:47.700Z,27.20
2023-05-18T04:31:49.700Z,21.60
2023-05-18T04:32:54.689Z,23.30
2023-05-18T04:34:00.148Z,24.75
2023-05-18T04:35:10.738Z,25.92
2023-05-18T04:36:12.823Z,20.58
2023-05-18T04:37:18.031Z,24.20
2023-05-18T04:38:23.452Z,25.02
2023-05-18T04:39:27.428Z,23.05
2023-05-18T04:40:34.182Z,24.70
2023-05-18T04:41:37.104Z,21.42
2023-05-18T04:42:45.339Z,22.58
2023-05-18T04:43:50.244Z,24.08
2023-05-18T04:44:55.571Z,22.83
2023-05-18T04:45:58.382Z,26.17
2023-05-18T04:47:01.213Z,22.05
2023-05-18T04:48:03.727Z,22.50
2023-05-18T04:49:09.425Z,27.95
2023-05-18T04:50:11.945Z,23.73
2023-05-18T04:51:14.128Z,27.77
2023-05-18T04:52:16.102Z,22.25
2023-05-18T04:53:18.212Z,22.80
2023-05-18T04:54:30.940Z,22.35
2023-05-18T04:55:35.491Z,28.17
2023-05-18T04:56:47.412Z,23.42
2023-05-18T04:57:54.049Z,23.75
2023-05-18T04:58:59.429Z,24.55
2023-05-18T05:00:05.857Z,23.07
2023-05-18T05:01:08.849Z,24.55
2023-05-18T05:02:11.159Z,24.13
2023-05-18T05:03:13.265Z,23.23
2023-05-18T05:04:15.695Z,22.00
2023-05-18T05:05:17.983Z,26.02
2023-05-18T05:06:20.305Z,27.30
2023-05-18T05:07:22.319Z,22.58
2023-05-18T05:08:24.382Z,27.10
2023-05-18T05:09:26.482Z,21.52
2023-05-18T05:10:28.792Z,21.83
2023-05-18T05:11:30.828Z,23.08
2023-05-18T05:12:33.112Z,23.92
2023-05-18T05:13:36.343Z,28.08
2023-05-18T05:14:38.647Z,22.52
2023-05-18T05:15:41.663Z,24.50
2023-05-18T05:16:43.689Z,27.63
2023-05-18T05:17:49.252Z,23.67
2023-05-18T05:18:53.514Z,22.00
2023-05-18T05:19:56.292Z,24.42
2023-05-18T05:20:59.762Z,24.23
2023-05-18T05:22:03.231Z,23.80
2023-05-18T05:23:05.753Z,25.35
2023-05-18T05:24:08.515Z,23.98
2023-05-18T05:25:11.500Z,24.65
2023-05-18T05:26:13.838Z,26.33
2023-05-18T05:27:16.120Z,24.55
2023-05-18T05:28:18.019Z,24.38
2023-05-18T05:29:20.349Z,27.88
2023-05-18T05:30:26.176Z,21.80
2023-05-18T05:31:32.001Z,21.30
2023-05-18T05:32:35.072Z,29.10
2023-05-18T05:33:37.395Z,21.55
2023-05-18T05:34:40.785Z,20.52
2023-05-18T05:35:42.704Z,19.65
2023-05-18T05:36:45.270Z,23.45
2023-05-18T05:37:47.276Z,26.80
2023-05-18T05:38:50.394Z,21.80
2023-05-18T05:39:52.312Z,20.70
2023-05-18T05:40:54.333Z,24.73
2023-05-18T05:41:58.816Z,21.75
2023-05-18T05:43:00.877Z,24.15
2023-05-18T05:44:04.267Z,20.17
2023-05-18T05:45:06.995Z,28.45
2023-05-18T05:46:15.823Z,25.05
2023-05-18T05:47:18.089Z,24.42
2023-05-18T05:48:23.170Z,21.52
2023-05-18T05:49:26.351Z,15.15
2023-05-18T05:50:28.335Z,14.25
2023-05-18T05:51:33.521Z,21.48
2023-05-18T05:52:38.670Z,17.42
2023-05-18T05:53:48.410Z,18.77
2023-05-18T05:54:53.462Z,14.38
2023-05-18T05:55:55.552Z,15.23
2023-05-18T05:56:57.940Z,19.42
2023-05-18T05:58:00.758Z,16.23
2023-05-18T05:59:04.882Z,15.40
2023-05-18T06:00:10.825Z,14.57
2023-05-18T06:01:32.400Z,18.67
2023-05-18T06:02:34.435Z,20.75
2023-05-18T06:03:37.355Z,11.88
2023-05-18T06:04:43.756Z,15.25
2023-05-18T06:05:46.176Z,15.10
2023-05-18T06:06:52.247Z,15.48
2023-05-18T06:07:57.411Z,11.85
2023-05-18T06:09:02.329Z,13.43
2023-05-18T06:10:04.959Z,15.65
2023-05-18T06:11:08.250Z,12.63
2023-05-18T06:12:12.055Z,11.60
2023-05-18T06:13:14.325Z,13.38
2023-05-18T06:14:38.863Z,22.10
2023-05-18T06:15:42.135Z,23.02
2023-05-18T06:16:44.229Z,39.60
2023-05-18T06:17:47.142Z,13.45
2023-05-18T06:18:49.405Z,14.45
2023-05-18T06:19:53.267Z,15.48
2023-05-18T06:20:55.773Z,11.93
2023-05-18T06:21:58.173Z,15.80
2023-05-18T06:23:04.609Z,16.27
2023-05-18T06:24:28.324Z,10.95
2023-05-18T06:25:53.309Z,15.45
2023-05-18T06:27:06.582Z,12.35
2023-05-18T06:28:14.960Z,16.25
2023-05-18T06:29:22.208Z,12.75
2023-05-18T06:30:42.850Z,14.07
2023-05-18T06:31:51.071Z,10.27
2023-05-18T06:32:57.825Z,18.40
2023-05-18T06:33:59.940Z,16.63
2023-05-18T06:35:03.150Z,15.70
2023-05-18T06:36:05.529Z,11.93
2023-05-18T06:37:09.172Z,12.35
2023-05-18T06:38:12.532Z,10.20
2023-05-18T06:39:14.811Z,8.98
2023-05-18T06:40:17.002Z,10.55
2023-05-18T06:41:22.568Z,9.32
2023-05-18T06:42:25.036Z,13.43
2023-05-18T06:43:38.668Z,8.63
2023-05-18T06:45:01.751Z,12.45
2023-05-18T06:46:47.339Z,13.25
2023-05-18T06:48:00.879Z,10.65
2023-05-18T06:49:08.366Z,10.35
2023-05-18T06:50:13.819Z,11.95
2023-05-18T06:51:16.881Z,8.73
2023-05-18T06:52:20.238Z,11.98
2023-05-18T06:53:23.512Z,11.25
2023-05-18T06:54:26.931Z,8.30
2023-05-18T06:55:29.441Z,11.55
2023-05-18T06:56:33.489Z,10.45
2023-05-18T06:57:35.668Z,13.27
2023-05-18T06:58:41.032Z,8.80
2023-05-18T06:59:45.400Z,12.23
2023-05-18T07:00:48.607Z,10.38
2023-05-18T07:01:50.798Z,8.00
2023-05-18T07:02:53.085Z,7.78
2023-05-18T07:03:55.112Z,9.35
2023-05-18T07:04:58.818Z,11.25
2023-05-18T07:06:01.080Z,12.88
2023-05-18T07:07:03.439Z,10.90
2023-05-18T07:08:05.917Z,13.68
2023-05-18T07:09:08.909Z,11.30
2023-05-18T07:10:11.040Z,12.30
2023-05-18T07:11:12.991Z,9.07
2023-05-18T07:12:15.084Z,10.23
2023-05-18T07:13:17.228Z,6.82
2023-05-18T07:14:22.673Z,9.68
2023-05-18T07:15:26.524Z,5.78
2023-05-18T07:16:28.756Z,9.90
2023-05-18T07:17:31.239Z,7.88
2023-05-18T07:18:34.745Z,9.13
2023-05-18T07:19:37.425Z,6.65
2023-05-18T07:22:33.332Z,10.95
2023-05-18T07:25:05.776Z,8.05
2023-05-18T07:26:13.344Z,6.78
2023-05-18T07:27:17.720Z,9.15
2023-05-18T07:28:19.880Z,9.10
2023-05-18T07:29:22.722Z,8.52
2023-05-18T07:30:26.628Z,7.35
2023-05-18T07:31:29.056Z,7.40
2023-05-18T07:32:32.099Z,8.43
2023-05-18T07:33:34.093Z,7.45
2023-05-18T07:34:37.067Z,6.05
2023-05-18T07:35:39.089Z,9.68
2023-05-18T07:36:41.750Z,8.45
2023-05-18T07:37:43.777Z,9.25
2023-05-18T07:38:45.807Z,11.30
2023-05-18T07:39:50.034Z,9.80
2023-05-18T07:40:52.052Z,7.75
2023-05-18T07:41:54.802Z,8.20
2023-05-18T07:42:56.816Z,10.13
2023-05-18T07:43:58.687Z,7.57
2023-05-18T07:45:00.992Z,9.25
2023-05-18T07:46:03.083Z,9.55
2023-05-18T07:47:05.313Z,7.97
2023-05-18T07:48:08.053Z,8.63
2023-05-18T07:49:10.203Z,9.10
2023-05-18T07:50:12.530Z,8.25
2023-05-18T07:51:14.469Z,9.20
2023-05-18T07:52:16.445Z,7.55
2023-05-18T07:53:18.801Z,8.93
2023-05-18T07:54:21.879Z,10.60
2023-05-18T07:55:23.890Z,6.03
2023-05-18T07:56:26.099Z,10.43
2023-05-18T07:57:28.320Z,7.90
2023-05-18T07:58:30.451Z,10.75
2023-05-18T07:59:33.786Z,8.00
2023-05-18T08:00:36.221Z,10.30
2023-05-18T08:01:38.606Z,12.48
2023-05-18T08:02:40.692Z,7.18
2023-05-18T08:03:43.235Z,8.45
2023-05-18T08:04:47.733Z,8.55
2023-05-18T08:05:49.839Z,6.80
2023-05-18T08:06:55.253Z,7.35
2023-05-18T08:07:57.353Z,8.90
2023-05-18T08:08:59.331Z,8.23
2023-05-18T08:10:01.718Z,8.93
2023-05-18T08:11:05.549Z,8.80
2023-05-18T08:12:08.876Z,8.65
2023-05-18T08:13:12.679Z,7.32
2023-05-18T08:14:14.916Z,9.30
2023-05-18T08:15:21.665Z,8.20
2023-05-18T08:16:23.965Z,8.77
2023-05-18T08:17:26.607Z,10.25
2023-05-18T08:18:28.726Z,7.43
2023-05-18T08:19:57.556Z,8.60
2023-05-18T08:21:00.540Z,9.48
2023-05-18T08:22:52.539Z,8.77
2023-05-18T08:24:03.178Z,7.93
2023-05-18T08:25:14.817Z,7.88
2023-05-18T08:26:17.933Z,7.47
2023-05-18T08:28:59.390Z,7.38
2023-05-18T08:30:35.661Z,8.25
2023-05-18T08:31:41.487Z,7.45
2023-05-18T08:34:11.375Z,10.43
2023-05-18T08:35:42.199Z,7.35
2023-05-18T08:36:45.966Z,9.07
2023-05-18T08:37:59.409Z,11.25
2023-05-18T08:39:05.956Z,11.00
2023-05-18T08:41:35.244Z,10.25
2023-05-18T08:44:48.036Z,10.85
2023-05-18T08:45:59.309Z,8.73
2023-05-18T08:48:32.120Z,7.43
2023-05-18T08:49:35.824Z,8.38
2023-05-18T08:50:44.738Z,9.85
2023-05-18T08:51:58.454Z,6.93
2023-05-18T08:53:10.894Z,7.40
2023-05-18T08:54:29.860Z,10.02
2023-05-18T08:55:38.894Z,9.15
2023-05-18T08:56:44.978Z,8.70
2023-05-18T08:57:56.093Z,7.95
2023-05-18T08:59:09.345Z,9.23
2023-05-18T09:00:17.384Z,9.60
2023-05-18T09:01:23.967Z,7.68
2023-05-18T09:02:30.836Z,9.07
2023-05-18T09:03:37.875Z,10.10
2023-05-18T09:04:41.415Z,14.93
2023-05-18T09:05:46.635Z,9.00
2023-05-18T09:06:50.317Z,11.48
2023-05-18T09:07:54.267Z,10.63
2023-05-18T09:09:05.734Z,8.35
2023-05-18T09:10:11.176Z,8.75
2023-05-18T09:11:16.290Z,8.20
2023-05-18T09:12:22.897Z,9.10
2023-05-18T09:13:30.738Z,11.82
2023-05-18T09:15:02.218Z,10.63
2023-05-18T09:16:08.196Z,13.93
2023-05-18T09:17:11.512Z,8.25
2023-05-18T09:18:14.044Z,7.47
2023-05-18T09:19:18.118Z,8.32
2023-05-18T09:20:25.509Z,8.68
2023-05-18T09:21:27.800Z,11.30
2023-05-18T09:22:35.736Z,8.70
2023-05-18T09:25:08.980Z,9.70
2023-05-18T09:26:14.950Z,10.20
2023-05-18T09:27:18.666Z,10.05
2023-05-18T09:28:49.761Z,12.75
2023-05-18T09:29:54.688Z,11.43
2023-05-18T09:30:57.500Z,10.85
2023-05-18T09:32:08.587Z,10.10
2023-05-18T09:33:18.576Z,12.05
2023-05-18T09:34:22.086Z,11.32
2023-05-18T09:35:33.333Z,9.05
2023-05-18T09:36:36.452Z,8.75
2023-05-18T09:37:51.470Z,8.90
2023-05-18T09:38:54.394Z,12.02
2023-05-18T09:40:02.995Z,9.60
2023-05-18T09:41:12.900Z,10.85
2023-05-18T09:42:15.818Z,11.98
2023-05-18T09:43:22.227Z,10.07
2023-05-18T09:44:42.413Z,12.05
2023-05-18T09:47:14.505Z,13.60
2023-05-18T09:48:17.345Z,10.38
2023-05-18T09:49:25.689Z,9.52
2023-05-18T09:50:30.238Z,9.57
2023-05-18T09:51:36.249Z,12.32
2023-05-18T09:52:49.312Z,9.30
2023-05-18T09:54:07.643Z,9.85
2023-05-18T09:55:12.844Z,10.73
2023-05-18T09:56:19.389Z,10.63
2023-05-18T09:57:24.507Z,9.30
2023-05-18T09:58:40.589Z,11.63
2023-05-18T09:59:59.105Z,8.82
2023-05-18T10:01:02.984Z,9.38
2023-05-18T10:02:10.345Z,10.80
2023-05-18T10:03:23.218Z,9.65
2023-05-18T10:04:36.217Z,9.73
2023-05-18T10:05:42.641Z,10.73
2023-05-18T10:06:49.718Z,11.55
2023-05-18T10:07:52.014Z,10.77
2023-05-18T10:08:57.148Z,11.02
2023-05-18T10:10:03.753Z,10.70
2023-05-18T10:11:08.251Z,12.27
2023-05-18T10:12:12.181Z,8.82
2023-05-18T10:13:18.206Z,11.85
2023-05-18T10:14:25.271Z,8.55
2023-05-18T10:15:33.534Z,9.15
2023-05-18T10:16:35.628Z,9.88
2023-05-18T10:17:43.851Z,11.50
2023-05-18T10:18:47.370Z,11.80
2023-05-18T10:19:55.073Z,9.63
2023-05-18T10:21:00.391Z,10.15
2023-05-18T10:22:05.259Z,11.93
2023-05-18T10:23:09.913Z,7.97
2023-05-18T10:24:15.817Z,11.85
2023-05-18T10:25:22.887Z,8.60
2023-05-18T10:26:28.313Z,10.63
2023-05-18T10:27:34.275Z,8.52
2023-05-18T10:28:42.854Z,9.00
2023-05-18T10:29:46.597Z,8.35
2023-05-18T10:30:48.685Z,16.55
2023-05-18T10:31:52.016Z,10.68
2023-05-18T10:32:57.246Z,10.65
2023-05-18T10:34:00.165Z,10.25
2023-05-18T10:35:05.483Z,7.90
2023-05-18T10:36:09.090Z,8.18
2023-05-18T10:37:13.181Z,10.88
2023-05-18T10:38:26.342Z,10.32
2023-05-18T10:39:29.023Z,12.57
2023-05-18T10:40:36.250Z,15.57
2023-05-18T10:41:39.964Z,13.25
2023-05-18T10:42:43.031Z,9.93
2023-05-18T10:43:46.431Z,12.18
2023-05-18T10:44:50.671Z,9.45
2023-05-18T10:46:00.730Z,8.93
2023-05-18T10:47:06.075Z,9.77
2023-05-18T10:48:10.003Z,9.48
2023-05-18T10:49:15.409Z,8.98
2023-05-18T10:50:17.767Z,12.63
2023-05-18T10:51:21.486Z,11.35
2023-05-18T10:52:24.558Z,9.13
2023-05-18T10:53:29.592Z,9.48
2023-05-18T10:54:31.583Z,12.00
2023-05-18T10:55:33.936Z,13.70
2023-05-18T10:56:37.740Z,8.98
2023-05-18T10:57:44.602Z,10.10
2023-05-18T10:58:48.073Z,11.10
2023-05-18T10:59:51.455Z,12.07
2023-05-18T11:00:58.435Z,9.50
2023-05-18T11:02:01.725Z,10.35
2023-05-18T11:03:08.102Z,9.98
2023-05-18T11:04:10.449Z,10.07
2023-05-18T11:05:13.091Z,13.70
2023-05-18T11:06:23.343Z,9.13
2023-05-18T11:07:28.483Z,10.38
2023-05-18T11:08:30.593Z,10.57
2023-05-18T11:09:33.547Z,9.05
2023-05-18T11:10:41.024Z,9.43
2023-05-18T11:12:01.113Z,9.60
2023-05-18T11:13:03.284Z,11.05
2023-05-18T11:14:05.674Z,14.55
2023-05-18T11:15:09.562Z,8.80
2023-05-18T11:16:11.576Z,14.93
2023-05-18T11:17:25.831Z,9.02
2023-05-18T11:18:35.044Z,9.07
2023-05-18T11:19:37.073Z,9.48
2023-05-18T11:20:39.152Z,9.70
2023-05-18T11:21:42.523Z,7.55
2023-05-18T11:22:57.359Z,8.48
2023-05-18T11:24:14.979Z,8.68
2023-05-18T11:25:32.395Z,10.77
2023-05-18T11:26:39.975Z,10.70
2023-05-18T11:27:42.327Z,9.55
2023-05-18T11:28:44.513Z,11.77
2023-05-18T11:29:47.973Z,8.90
2023-05-18T11:30:53.994Z,10.30
2023-05-18T11:31:56.260Z,13.15
2023-05-18T11:33:17.659Z,11.68
2023-05-18T11:34:39.652Z,13.88
2023-05-18T11:36:07.698Z,11.80
2023-05-18T11:37:10.491Z,13.82
2023-05-18T11:38:13.329Z,10.18
2023-05-18T11:39:24.429Z,9.05
2023-05-18T11:40:49.859Z,12.27
2023-05-18T11:42:05.859Z,10.63
2023-05-18T11:43:08.214Z,11.45
2023-05-18T11:44:14.195Z,10.45
2023-05-18T11:45:19.802Z,13.50
2023-05-18T11:46:23.703Z,9.77
2023-05-18T11:47:36.935Z,13.43
2023-05-18T11:48:44.563Z,12.52
2023-05-18T11:50:55.116Z,14.45
2023-05-18T11:52:27.053Z,14.05
2023-05-18T11:53:30.329Z,11.45
2023-05-18T11:54:40.809Z,10.35
2023-05-18T11:55:44.615Z,9.52
2023-05-18T11:56:48.273Z,11.60
2023-05-18T11:57:52.894Z,11.73
2023-05-18T11:59:14.566Z,13.80
2023-05-18T12:00:18.979Z,9.50
2023-05-18T12:01:23.738Z,13.77
2023-05-18T12:02:32.778Z,13.68
2023-05-18T12:03:35.457Z,12.40
2023-05-18T12:04:45.745Z,10.70
2023-05-18T12:05:50.179Z,7.63
2023-05-18T12:06:53.015Z,12.70
2023-05-18T12:07:55.708Z,9.90
2023-05-18T12:09:00.817Z,8.88
2023-05-18T12:10:07.012Z,11.40
2023-05-18T12:11:09.204Z,9.52
2023-05-18T12:12:17.060Z,8.95
2023-05-18T12:13:19.317Z,11.95
2023-05-18T12:14:22.860Z,8.63
2023-05-18T12:15:25.056Z,12.48
2023-05-18T12:16:27.203Z,9.95
2023-05-18T12:17:42.887Z,10.23
2023-05-18T12:18:51.903Z,9.15
2023-05-18T12:20:55.821Z,9.65
2023-05-18T12:21:59.066Z,10.77
2023-05-18T12:23:03.604Z,11.10
2023-05-18T12:24:05.729Z,12.88
2023-05-18T12:25:09.945Z,9.52
2023-05-18T12:26:11.930Z,10.50
2023-05-18T12:27:14.231Z,10.55
2023-05-18T12:28:17.308Z,7.43
2023-05-18T12:29:21.990Z,8.70
2023-05-18T12:30:34.683Z,8.98
2023-05-18T12:31:40.650Z,8.13
2023-05-18T12:32:54.553Z,11.82
2023-05-18T12:34:05.308Z,9.55
2023-05-18T12:35:09.967Z,8.60
2023-05-18T12:36:13.408Z,11.30
2023-05-18T12:37:15.892Z,8.55
2023-05-18T12:38:18.859Z,10.27
2023-05-18T12:40:47.516Z,9.23
2023-05-18T12:41:49.811Z,9.45
2023-05-18T12:42:56.864Z,8.30
2023-05-18T12:43:59.083Z,9.93
2023-05-18T12:45:01.537Z,8.55
2023-05-18T12:46:06.547Z,9.68
2023-05-18T12:47:11.067Z,11.73
2023-05-18T12:48:13.649Z,9.75
2023-05-18T12:49:18.843Z,11.93
2023-05-18T12:50:28.777Z,10.10
2023-05-18T12:51:35.549Z,9.10
2023-05-18T12:52:37.755Z,10.82
2023-05-18T12:53:43.337Z,7.95
2023-05-18T12:55:01.484Z,8.48
2023-05-18T12:56:09.812Z,8.20
2023-05-18T12:57:12.534Z,13.00
2023-05-18T12:58:19.729Z,11.27
2023-05-18T12:59:23.460Z,9.77
2023-05-18T13:00:26.913Z,9.23
2023-05-18T13:01:30.880Z,7.38
2023-05-18T13:02:36.954Z,10.00
2023-05-18T13:03:42.527Z,7.40
2023-05-18T13:04:44.712Z,9.98
2023-05-18T13:06:04.502Z,10.30
2023-05-18T13:07:06.948Z,7.72
2023-05-18T13:08:09.571Z,9.18
2023-05-18T13:09:16.406Z,7.03
2023-05-18T13:10:20.677Z,9.48
2023-05-18T13:11:27.753Z,9.48
2023-05-18T13:12:59.166Z,7.38
2023-05-18T13:14:06.268Z,11.13
2023-05-18T13:15:20.096Z,9.57
2023-05-18T13:16:22.415Z,8.77
2023-05-18T13:17:24.534Z,11.45
2023-05-18T13:18:27.999Z,8.45
2023-05-18T13:19:31.731Z,10.05
2023-05-18T13:20:42.835Z,8.18
2023-05-18T13:21:45.741Z,7.38
2023-05-18T13:22:50.907Z,8.73
2023-05-18T13:23:53.207Z,8.63
2023-05-18T13:24:55.186Z,8.95
2023-05-18T13:25:58.906Z,11.13
2023-05-18T13:27:01.410Z,9.50
2023-05-18T13:28:04.394Z,10.48
2023-05-18T13:29:07.462Z,14.80
2023-05-18T13:30:10.057Z,12.35
2023-05-18T13:31:13.575Z,10.55
2023-05-18T13:32:16.620Z,8.63
2023-05-18T13:33:19.518Z,10.95
2023-05-18T13:34:21.581Z,9.75
2023-05-18T13:35:27.080Z,9.85
2023-05-18T13:36:29.992Z,11.35
2023-05-18T13:37:32.042Z,7.25
2023-05-18T13:38:36.083Z,9.90
2023-05-18T13:39:38.328Z,8.70
2023-05-18T13:40:46.777Z,12.50
2023-05-18T13:41:48.749Z,9.60
2023-05-18T13:42:50.670Z,10.20
2023-05-18T13:43:55.231Z,8.77
2023-05-18T13:44:57.519Z,14.82
2023-05-18T13:45:59.958Z,10.50
2023-05-18T13:47:02.092Z,10.52
2023-05-18T13:48:10.438Z,9.32
2023-05-18T13:50:20.913Z,9.93
2023-05-18T13:51:25.342Z,8.90
2023-05-18T13:52:27.535Z,12.50
2023-05-18T13:53:29.662Z,9.70
2023-05-18T13:54:38.488Z,9.73
2023-05-18T13:55:44.564Z,7.53
2023-05-18T13:56:48.579Z,9.75
2023-05-18T13:57:52.198Z,7.55
2023-05-18T13:58:54.626Z,9.05
2023-05-18T13:59:59.021Z,8.88
2023-05-18T14:01:04.316Z,7.40
2023-05-18T14:02:07.142Z,9.20
2023-05-18T14:03:10.351Z,12.90
2023-05-18T14:04:13.021Z,14.00
2023-05-18T14:05:15.007Z,12.10
2023-05-18T14:06:20.706Z,9.30
2023-05-18T14:07:24.594Z,10.52
2023-05-18T14:08:26.646Z,13.60
2023-05-18T14:09:31.626Z,9.23
2023-05-18T14:10:35.165Z,10.07
2023-05-18T14:11:38.724Z,9.50
2023-05-18T14:12:42.839Z,9.48
2023-05-18T14:13:47.829Z,8.10
2023-05-18T14:14:49.853Z,7.57
2023-05-18T14:15:52.160Z,8.27
2023-05-18T14:16:54.537Z,8.68
2023-05-18T14:17:56.531Z,8.32
2023-05-18T14:18:58.647Z,12.93
2023-05-18T14:20:02.170Z,10.80
2023-05-18T14:21:06.445Z,13.23
2023-05-18T14:22:12.576Z,14.50
2023-05-18T14:23:14.760Z,17.33
2023-05-18T14:24:16.742Z,11.43
2023-05-18T14:25:21.838Z,7.82
2023-05-18T14:26:25.494Z,11.18
2023-05-18T14:27:28.532Z,13.52
2023-05-18T14:28:30.482Z,9.07
2023-05-18T14:29:36.043Z,13.43
2023-05-18T14:30:39.457Z,13.07
2023-05-18T14:31:41.820Z,17.90
2023-05-18T14:32:50.154Z,16.08
2023-05-18T14:33:52.165Z,9.93
2023-05-18T14:34:59.134Z,12.32
2023-05-18T14:36:02.180Z,31.60
2023-05-18T14:37:06.908Z,15.52
2023-05-18T14:38:09.271Z,14.60
2023-05-18T14:39:11.362Z,8.93
2023-05-18T14:40:13.590Z,12.65
2023-05-18T14:41:15.778Z,11.43
2023-05-18T14:42:17.723Z,11.95
2023-05-18T14:43:19.808Z,94.53
2023-05-18T14:44:21.706Z,52.72
2023-05-18T14:45:26.094Z,23.85
2023-05-18T14:46:29.222Z,20.00
2023-05-18T14:47:31.350Z,23.80
2023-05-18T14:48:34.475Z,12.93
2023-05-18T14:49:36.592Z,20.08
2023-05-18T14:50:41.118Z,26.60
2023-05-18T14:51:43.243Z,18.55
2023-05-18T14:52:45.924Z,14.32
2023-05-18T14:53:47.899Z,15.38
2023-05-18T14:54:49.943Z,11.93
2023-05-18T14:55:56.925Z,10.73
2023-05-18T14:57:01.578Z,19.42
2023-05-18T14:58:06.196Z,15.55
2023-05-18T14:59:08.288Z,8.38
2023-05-18T15:00:11.462Z,17.70
2023-05-18T15:01:13.812Z,10.10
2023-05-18T15:02:16.566Z,13.35
2023-05-18T15:03:18.775Z,13.00
2023-05-18T15:04:22.076Z,9.23
2023-05-18T15:05:24.250Z,12.85
2023-05-18T15:06:27.008Z,19.17
2023-05-18T15:07:29.077Z,17.48
2023-05-18T15:08:31.801Z,11.75
2023-05-18T15:09:33.848Z,14.20
2023-05-18T15:10:38.135Z,11.90
2023-05-18T15:11:41.415Z,10.15
2023-05-18T15:12:43.528Z,13.13
2023-05-18T15:13:45.918Z,8.70
2023-05-18T15:14:48.004Z,9.18
2023-05-18T15:15:50.293Z,11.88
2023-05-18T15:16:52.357Z,10.10
2023-05-18T15:17:54.350Z,10.15
2023-05-18T15:18:56.616Z,12.73
2023-05-18T15:19:58.659Z,13.18
2023-05-18T15:21:02.023Z,10.65
2023-05-18T15:22:04.117Z,12.93
2023-05-18T15:23:06.955Z,13.00
2023-05-18T15:24:09.241Z,14.15
2023-05-18T15:25:11.278Z,11.00
2023-05-18T15:26:17.350Z,13.25
2023-05-18T15:27:19.333Z,7.82
2023-05-18T15:28:21.970Z,17.75
2023-05-18T15:29:24.002Z,9.43
2023-05-18T15:30:35.031Z,10.35
2023-05-18T15:31:41.609Z,9.75
2023-05-18T15:32:49.984Z,14.32
2023-05-18T15:33:52.117Z,11.90
2023-05-18T15:34:58.612Z,13.90
2023-05-18T15:36:02.327Z,14.13
2023-05-18T15:37:05.757Z,12.85
2023-05-18T15:38:10.810Z,10.23
2023-05-18T15:39:13.451Z,13.70
2023-05-18T15:40:19.089Z,9.65
2023-05-18T15:41:26.397Z,15.80
2023-05-18T15:42:31.346Z,16.60
2023-05-18T15:43:33.952Z,14.45
2023-05-18T15:44:36.083Z,13.43
2023-05-18T15:45:38.811Z,12.73
2023-05-18T15:46:42.201Z,12.48
2023-05-18T15:47:44.650Z,9.80
2023-05-18T15:48:46.761Z,22.13
2023-05-18T15:49:48.672Z,14.90
2023-05-18T15:50:54.892Z,15.75
2023-05-18T15:51:57.387Z,20.55
2023-05-18T15:52:59.427Z,22.55
2023-05-18T15:54:04.445Z,19.33
2023-05-18T15:55:07.020Z,15.13
2023-05-18T15:56:10.293Z,17.13
2023-05-18T15:57:13.558Z,23.38
2023-05-18T15:58:16.335Z,21.05
2023-05-18T15:59:18.320Z,21.60
2023-05-18T16:00:24.861Z,19.92
2023-05-18T16:01:27.064Z,19.52
2023-05-18T16:02:30.273Z,16.23
2023-05-18T16:03:32.245Z,21.23
2023-05-18T16:04:35.531Z,19.98
2023-05-18T16:05:39.037Z,20.63
2023-05-18T16:06:41.241Z,15.68
2023-05-18T16:07:43.066Z,21.15
2023-05-18T16:08:47.407Z,23.25
2023-05-18T16:09:49.633Z,15.13
2023-05-18T16:11:14.655Z,22.80
2023-05-18T16:12:23.128Z,24.77
2023-05-18T16:13:27.177Z,18.23
2023-05-18T16:14:33.110Z,17.08
2023-05-18T16:15:39.165Z,14.45
2023-05-18T16:16:41.212Z,22.23
2023-05-18T16:17:55.931Z,14.35
2023-05-18T16:19:00.940Z,14.77
2023-05-18T16:20:05.572Z,38.05
2023-05-18T16:21:09.566Z,23.17
2023-05-18T16:22:15.051Z,18.23
2023-05-18T16:23:17.863Z,16.05
2023-05-18T16:24:20.083Z,15.40
2023-05-18T16:25:24.786Z,19.98
2023-05-18T16:26:29.554Z,17.98
2023-05-18T16:27:31.607Z,17.70
2023-05-18T16:28:33.710Z,18.80
2023-05-18T16:29:35.759Z,18.60
2023-05-18T16:30:38.948Z,15.43
2023-05-18T16:31:42.279Z,15.52
2023-05-18T16:32:44.987Z,16.00
2023-05-18T16:33:46.899Z,17.10
2023-05-18T16:34:51.685Z,18.55
2023-05-18T16:35:55.647Z,14.88
2023-05-18T16:36:58.294Z,14.80
2023-05-18T16:38:01.021Z,16.33
2023-05-18T16:39:03.191Z,13.68
2023-05-18T16:40:06.004Z,18.67
2023-05-18T16:41:08.147Z,17.05
2023-05-18T16:42:10.116Z,15.80
2023-05-18T16:43:12.842Z,17.88